Florida Highway — 3EPT6 — position and weather

sailwx.info

Track history (hours):
 
Tides and Currents Weather Stations Pressure Air Temp Water Temp Dewpoint Dewpoint Depression Visibility Wind Speed Wind Dir Waves Ship Positions

Florida Highway

Last reported at 2018-Jun-18 00:38 UTC. Time now 2018-Jun-18 02:14 UTC.
Position N 32°43' W 079°49'.

Length 199 m; draft 8.3 m.

Type: Ship. MMSI: 372805000.

Date/timePositionNaut miles runAvg speedWind from/ knotsBaromVisibWave heightAir tempDewpointWater temp
2018-Jun-18 00:38N 32°43' W 079°49'210.8
2018-Jun-18 00:28N 32°44' W 079°50'5 9.3
2018-Jun-17 23:59N 32°47' W 079°55'1 2.0
2018-Jun-17 23:28N 32°48' W 079°56'0 0.0
2018-Jun-17 22:58N 32°48' W 079°56'0 0.0
2018-Jun-17 22:28N 32°48' W 079°56'0 0.0
2018-Jun-17 21:58N 32°48' W 079°56'0 0.0
2018-Jun-17 21:28N 32°48' W 079°56'0 0.0
2018-Jun-17 20:58N 32°48' W 079°56'0 0.0
2018-Jun-17 20:28N 32°48' W 079°56'0 0.0
2018-Jun-17 19:58N 32°48' W 079°56'0 0.0
2018-Jun-17 19:28N 32°48' W 079°56'0 0.0
2018-Jun-17 18:58N 32°48' W 079°56'0 0.0
2018-Jun-17 18:28N 32°48' W 079°56'0 0.0
2018-Jun-17 17:58N 32°48' W 079°56'0 0.0
2018-Jun-17 17:28N 32°48' W 079°56'0 0.0
2018-Jun-17 16:58N 32°48' W 079°56'0 0.0
2018-Jun-17 16:28N 32°48' W 079°56'0 0.0
2018-Jun-17 15:58N 32°48' W 079°56'0 0.0
2018-Jun-17 15:28N 32°48' W 079°56'0 0.0
2018-Jun-17 14:58N 32°48' W 079°56'0 0.0
2018-Jun-17 14:28N 32°48' W 079°56'0 0.0
2018-Jun-17 13:55N 32°48' W 079°56'0 0.0
2018-Jun-17 13:28N 32°48' W 079°56'0 0.0
2018-Jun-17 12:58N 32°48' W 079°56'0 0.0
2018-Jun-17 12:28N 32°48' W 079°56'0 0.0
2018-Jun-17 11:58N 32°48' W 079°56'0 0.0
2018-Jun-17 11:28N 32°48' W 079°56'0 0.0
2018-Jun-17 10:58N 32°48' W 079°56'0 0.0
2018-Jun-17 10:28N 32°48' W 079°56'0 0.0
2018-Jun-17 09:58N 32°48' W 079°56'0 0.0
2018-Jun-17 09:28N 32°48' W 079°56'0 0.6
2018-Jun-17 09:00N 32°48' W 079°55'4 8.3
2018-Jun-17 08:30N 32°45' W 079°51'1811.1
2018-Jun-17 06:54N 32°33' W 079°36'16 3.4
2018-Jun-17 02:14N 32°18' W 079°44'716.5
2018-Jun-17 01:49N 32°12' W 079°47'717.9
2018-Jun-17 01:24N 32°06' W 079°52'718.1
2018-Jun-17 01:00N 32°00' W 079°57'1017.5
2018-Jun-17 00:26N 31°52' W 080°04'817.5
2018-Jun-16 23:59N 31°46' W 080°10'917.4
2018-Jun-16 23:30N 31°39' W 080°16'72 3.7
2018-Jun-16 03:57N 31°08' W 081°32'66 3.8
2018-Jun-15 10:39N 31°30' W 080°19'417.3
2018-Jun-15 10:24N 31°33' W 080°16'817.4
2018-Jun-15 09:55N 31°39' W 080°09'1517.3
2018-Jun-15 09:04N 31°50' W 079°57'317.7
2018-Jun-15 08:55N 31°52' W 079°55'1018.0
2018-Jun-15 08:22N 31°59' W 079°47'20917.6
2018-Jun-14 20:27N 34°09' W 076°32'1817.8
2018-Jun-14 19:28N 34°21' W 076°15'917.8
2018-Jun-14 18:56N 34°27' W 076°06'818.0
2018-Jun-14 18:30N 34°31' W 075°59'18914.6
2018-Jun-14 05:30N 37°41' W 076°10'1916.8
2018-Jun-14 04:21N 37°60' W 076°13'717.5
2018-Jun-14 03:56N 38°07' W 076°14'3718.1
2018-Jun-14 01:53N 38°43' W 076°26'718.4
2018-Jun-14 01:30N 38°50' W 076°24'816.4
2018-Jun-14 01:00N 38°58' W 076°23'714.9
2018-Jun-14 00:30N 39°06' W 076°24'612.5
2018-Jun-14 00:00N 39°11' W 076°27'510.2
2018-Jun-13 23:30N 39°14' W 076°33'1 2.6
2018-Jun-13 23:00N 39°15' W 076°32'0 0.1
2018-Jun-13 22:28N 39°15' W 076°32'0 0.0
2018-Jun-13 21:58N 39°15' W 076°32'0 0.0
2018-Jun-13 21:28N 39°15' W 076°32'0 0.0
2018-Jun-13 20:58N 39°15' W 076°32'0 0.0
2018-Jun-13 20:28N 39°15' W 076°32'0 0.0
2018-Jun-13 19:58N 39°15' W 076°32'0 0.0
2018-Jun-13 19:28N 39°15' W 076°32'0 0.0
2018-Jun-13 18:58N 39°15' W 076°32'0 0.0
2018-Jun-13 18:28N 39°15' W 076°32'0 0.0
2018-Jun-13 17:58N 39°15' W 076°32'0 0.0
2018-Jun-13 17:28N 39°15' W 076°32'0 0.0
2018-Jun-13 16:58N 39°15' W 076°32'0 0.0
2018-Jun-13 16:28N 39°15' W 076°32'0 0.0
2018-Jun-13 15:58N 39°15' W 076°32'0 0.0
2018-Jun-13 15:28N 39°15' W 076°32'0 0.0
2018-Jun-13 14:58N 39°15' W 076°32'0 0.0
2018-Jun-13 14:28N 39°15' W 076°32'0 0.0
2018-Jun-13 13:58N 39°15' W 076°32'0 0.0
2018-Jun-13 13:28N 39°15' W 076°32'0 0.0
2018-Jun-13 12:58N 39°15' W 076°32'0 0.0
2018-Jun-13 12:28N 39°15' W 076°32'0 0.0
2018-Jun-13 11:58N 39°15' W 076°32'0 0.0
2018-Jun-13 11:28N 39°15' W 076°32'0 0.0
2018-Jun-13 10:58N 39°15' W 076°32'0 0.0
2018-Jun-13 10:28N 39°15' W 076°32'0 0.0
2018-Jun-13 09:58N 39°15' W 076°32'0 0.0
2018-Jun-13 09:29N 39°15' W 076°32'1 1.8
2018-Jun-13 09:00N 39°15' W 076°33'2 3.0
2018-Jun-13 08:28N 39°15' W 076°35'0 0.0
2018-Jun-13 07:58N 39°15' W 076°35'0 0.0
2018-Jun-13 07:28N 39°15' W 076°35'0 0.0
2018-Jun-13 06:58N 39°15' W 076°35'0 0.0
2018-Jun-13 06:28N 39°15' W 076°35'0 0.0
2018-Jun-13 05:58N 39°15' W 076°35'0 0.0
2018-Jun-13 05:28N 39°15' W 076°35'0 0.0
2018-Jun-13 04:58N 39°15' W 076°35'0 0.0
2018-Jun-13 04:28N 39°15' W 076°35'0 0.0
2018-Jun-13 03:58N 39°15' W 076°35'0 0.0
2018-Jun-13 03:28N 39°15' W 076°35'0 0.0
2018-Jun-13 02:58N 39°15' W 076°35'0 0.0
2018-Jun-13 02:28N 39°15' W 076°35'0 0.0
2018-Jun-13 01:58N 39°15' W 076°35'0 0.0
2018-Jun-13 01:28N 39°15' W 076°35'0 0.0
2018-Jun-13 00:58N 39°15' W 076°35'0 0.0
2018-Jun-13 00:28N 39°15' W 076°35'0 0.0
2018-Jun-12 23:58N 39°15' W 076°35'0 0.0
2018-Jun-12 23:28N 39°15' W 076°35'0 0.0
2018-Jun-12 22:58N 39°15' W 076°35'0 0.0
2018-Jun-12 22:28N 39°15' W 076°35'0 0.0
2018-Jun-12 21:58N 39°15' W 076°35'0 0.0
2018-Jun-12 21:28N 39°15' W 076°35'0 0.8
2018-Jun-12 21:00N 39°15' W 076°34'1 2.6
2018-Jun-12 20:30N 39°15' W 076°33'0 0.0
2018-Jun-12 20:00N 39°15' W 076°33'0 0.0
2018-Jun-12 19:30N 39°15' W 076°33'0 0.1
2018-Jun-12 19:00N 39°15' W 076°33'0 0.0
2018-Jun-12 18:30N 39°15' W 076°33'3 5.9
2018-Jun-12 18:00N 39°12' W 076°31'611.7
2018-Jun-12 17:30N 39°09' W 076°25'713.8
2018-Jun-12 17:01N 39°02' W 076°23'714.3
2018-Jun-12 16:30N 38°55' W 076°23'817.1
2018-Jun-12 16:00N 38°46' W 076°25'2516.6
2018-Jun-12 14:31N 38°22' W 076°20'117.0
2018-Jun-12 14:29N 38°22' W 076°19'917.3
2018-Jun-12 13:57N 38°13' W 076°15'817.3
2018-Jun-12 13:29N 38°05' W 076°13'917.8
2018-Jun-12 13:00N 37°57' W 076°10'817.4
2018-Jun-12 12:30N 37°48' W 076°11'917.0
2018-Jun-12 11:59N 37°39' W 076°08'917.0
2018-Jun-12 11:28N 37°32' W 076°02'1016.7
2018-Jun-12 10:53N 37°23' W 076°05'717.2
2018-Jun-12 10:30N 37°16' W 076°07'916.4
2018-Jun-12 09:58N 37°08' W 076°08'1016.0
2018-Jun-12 09:22N 36°60' W 076°01'2012.6
2018-Jun-12 07:48N 36°46' W 075°43'  
Track history (hours):
 
Tides and Currents Weather Stations Pressure Air Temp Water Temp Dewpoint Dewpoint Depression Visibility Wind Speed Wind Dir Waves Ship Positions

Florida Highway

Last reported at 2018-Jun-18 00:38 UTC. Time now 2018-Jun-18 02:14 UTC.
Position N 32°43' W 079°49'.

Length 199 m; draft 8.3 m.

Type: Ship. MMSI: 372805000.

Date/timePositionNaut miles runAvg speedWind from/ knotsBaromVisibWave heightAir tempDewpointWater temp
2018-Jun-18 00:38N 32°43' W 079°49'210.8
2018-Jun-18 00:28N 32°44' W 079°50'5 9.3
2018-Jun-17 23:59N 32°47' W 079°55'1 2.0
2018-Jun-17 23:28N 32°48' W 079°56'0 0.0
2018-Jun-17 22:58N 32°48' W 079°56'0 0.0
2018-Jun-17 22:28N 32°48' W 079°56'0 0.0
2018-Jun-17 21:58N 32°48' W 079°56'0 0.0
2018-Jun-17 21:28N 32°48' W 079°56'0 0.0
2018-Jun-17 20:58N 32°48' W 079°56'0 0.0
2018-Jun-17 20:28N 32°48' W 079°56'0 0.0
2018-Jun-17 19:58N 32°48' W 079°56'0 0.0
2018-Jun-17 19:28N 32°48' W 079°56'0 0.0
2018-Jun-17 18:58N 32°48' W 079°56'0 0.0
2018-Jun-17 18:28N 32°48' W 079°56'0 0.0
2018-Jun-17 17:58N 32°48' W 079°56'0 0.0
2018-Jun-17 17:28N 32°48' W 079°56'0 0.0
2018-Jun-17 16:58N 32°48' W 079°56'0 0.0
2018-Jun-17 16:28N 32°48' W 079°56'0 0.0
2018-Jun-17 15:58N 32°48' W 079°56'0 0.0
2018-Jun-17 15:28N 32°48' W 079°56'0 0.0
2018-Jun-17 14:58N 32°48' W 079°56'0 0.0
2018-Jun-17 14:28N 32°48' W 079°56'0 0.0
2018-Jun-17 13:55N 32°48' W 079°56'0 0.0
2018-Jun-17 13:28N 32°48' W 079°56'0 0.0
2018-Jun-17 12:58N 32°48' W 079°56'0 0.0
2018-Jun-17 12:28N 32°48' W 079°56'0 0.0
2018-Jun-17 11:58N 32°48' W 079°56'0 0.0
2018-Jun-17 11:28N 32°48' W 079°56'0 0.0
2018-Jun-17 10:58N 32°48' W 079°56'0 0.0
2018-Jun-17 10:28N 32°48' W 079°56'0 0.0
2018-Jun-17 09:58N 32°48' W 079°56'0 0.0
2018-Jun-17 09:28N 32°48' W 079°56'0 0.6
2018-Jun-17 09:00N 32°48' W 079°55'4 8.3
2018-Jun-17 08:30N 32°45' W 079°51'1811.1
2018-Jun-17 06:54N 32°33' W 079°36'16 3.4
2018-Jun-17 02:14N 32°18' W 079°44'716.5
2018-Jun-17 01:49N 32°12' W 079°47'717.9
2018-Jun-17 01:24N 32°06' W 079°52'718.1
2018-Jun-17 01:00N 32°00' W 079°57'1017.5
2018-Jun-17 00:26N 31°52' W 080°04'817.5
2018-Jun-16 23:59N 31°46' W 080°10'917.4
2018-Jun-16 23:30N 31°39' W 080°16'72 3.7
2018-Jun-16 03:57N 31°08' W 081°32'66 3.8
2018-Jun-15 10:39N 31°30' W 080°19'417.3
2018-Jun-15 10:24N 31°33' W 080°16'817.4
2018-Jun-15 09:55N 31°39' W 080°09'1517.3
2018-Jun-15 09:04N 31°50' W 079°57'317.7
2018-Jun-15 08:55N 31°52' W 079°55'1018.0
2018-Jun-15 08:22N 31°59' W 079°47'20917.6
2018-Jun-14 20:27N 34°09' W 076°32'1817.8
2018-Jun-14 19:28N 34°21' W 076°15'917.8
2018-Jun-14 18:56N 34°27' W 076°06'818.0
2018-Jun-14 18:30N 34°31' W 075°59'18914.6
2018-Jun-14 05:30N 37°41' W 076°10'1916.8
2018-Jun-14 04:21N 37°60' W 076°13'717.5
2018-Jun-14 03:56N 38°07' W 076°14'3718.1
2018-Jun-14 01:53N 38°43' W 076°26'718.4
2018-Jun-14 01:30N 38°50' W 076°24'816.4
2018-Jun-14 01:00N 38°58' W 076°23'714.9
2018-Jun-14 00:30N 39°06' W 076°24'612.5
2018-Jun-14 00:00N 39°11' W 076°27'510.2
2018-Jun-13 23:30N 39°14' W 076°33'1 2.6
2018-Jun-13 23:00N 39°15' W 076°32'0 0.1
2018-Jun-13 22:28N 39°15' W 076°32'0 0.0
2018-Jun-13 21:58N 39°15' W 076°32'0 0.0
2018-Jun-13 21:28N 39°15' W 076°32'0 0.0
2018-Jun-13 20:58N 39°15' W 076°32'0 0.0
2018-Jun-13 20:28N 39°15' W 076°32'0 0.0
2018-Jun-13 19:58N 39°15' W 076°32'0 0.0
2018-Jun-13 19:28N 39°15' W 076°32'0 0.0
2018-Jun-13 18:58N 39°15' W 076°32'0 0.0
2018-Jun-13 18:28N 39°15' W 076°32'0 0.0
2018-Jun-13 17:58N 39°15' W 076°32'0 0.0
2018-Jun-13 17:28N 39°15' W 076°32'0 0.0
2018-Jun-13 16:58N 39°15' W 076°32'0 0.0
2018-Jun-13 16:28N 39°15' W 076°32'0 0.0
2018-Jun-13 15:58N 39°15' W 076°32'0 0.0
2018-Jun-13 15:28N 39°15' W 076°32'0 0.0
2018-Jun-13 14:58N 39°15' W 076°32'0 0.0
2018-Jun-13 14:28N 39°15' W 076°32'0 0.0
2018-Jun-13 13:58N 39°15' W 076°32'0 0.0
2018-Jun-13 13:28N 39°15' W 076°32'0 0.0
2018-Jun-13 12:58N 39°15' W 076°32'0 0.0
2018-Jun-13 12:28N 39°15' W 076°32'0 0.0
2018-Jun-13 11:58N 39°15' W 076°32'0 0.0
2018-Jun-13 11:28N 39°15' W 076°32'0 0.0
2018-Jun-13 10:58N 39°15' W 076°32'0 0.0
2018-Jun-13 10:28N 39°15' W 076°32'0 0.0
2018-Jun-13 09:58N 39°15' W 076°32'0 0.0
2018-Jun-13 09:29N 39°15' W 076°32'1 1.8
2018-Jun-13 09:00N 39°15' W 076°33'2 3.0
2018-Jun-13 08:28N 39°15' W 076°35'0 0.0
2018-Jun-13 07:58N 39°15' W 076°35'0 0.0
2018-Jun-13 07:28N 39°15' W 076°35'0 0.0
2018-Jun-13 06:58N 39°15' W 076°35'0 0.0
2018-Jun-13 06:28N 39°15' W 076°35'0 0.0
2018-Jun-13 05:58N 39°15' W 076°35'0 0.0
2018-Jun-13 05:28N 39°15' W 076°35'0 0.0
2018-Jun-13 04:58N 39°15' W 076°35'0 0.0
2018-Jun-13 04:28N 39°15' W 076°35'0 0.0
2018-Jun-13 03:58N 39°15' W 076°35'0 0.0
2018-Jun-13 03:28N 39°15' W 076°35'0 0.0
2018-Jun-13 02:58N 39°15' W 076°35'0 0.0
2018-Jun-13 02:28N 39°15' W 076°35'0 0.0
2018-Jun-13 01:58N 39°15' W 076°35'0 0.0
2018-Jun-13 01:28N 39°15' W 076°35'0 0.0
2018-Jun-13 00:58N 39°15' W 076°35'0 0.0
2018-Jun-13 00:28N 39°15' W 076°35'0 0.0
2018-Jun-12 23:58N 39°15' W 076°35'0 0.0
2018-Jun-12 23:28N 39°15' W 076°35'0 0.0
2018-Jun-12 22:58N 39°15' W 076°35'0 0.0
2018-Jun-12 22:28N 39°15' W 076°35'0 0.0
2018-Jun-12 21:58N 39°15' W 076°35'0 0.0
2018-Jun-12 21:28N 39°15' W 076°35'0 0.8
2018-Jun-12 21:00N 39°15' W 076°34'1 2.6
2018-Jun-12 20:30N 39°15' W 076°33'0 0.0
2018-Jun-12 20:00N 39°15' W 076°33'0 0.0
2018-Jun-12 19:30N 39°15' W 076°33'0 0.1
2018-Jun-12 19:00N 39°15' W 076°33'0 0.0
2018-Jun-12 18:30N 39°15' W 076°33'3 5.9
2018-Jun-12 18:00N 39°12' W 076°31'611.7
2018-Jun-12 17:30N 39°09' W 076°25'713.8
2018-Jun-12 17:01N 39°02' W 076°23'714.3
2018-Jun-12 16:30N 38°55' W 076°23'817.1
2018-Jun-12 16:00N 38°46' W 076°25'2516.6
2018-Jun-12 14:31N 38°22' W 076°20'117.0
2018-Jun-12 14:29N 38°22' W 076°19'917.3
2018-Jun-12 13:57N 38°13' W 076°15'817.3
2018-Jun-12 13:29N 38°05' W 076°13'917.8
2018-Jun-12 13:00N 37°57' W 076°10'817.4
2018-Jun-12 12:30N 37°48' W 076°11'917.0
2018-Jun-12 11:59N 37°39' W 076°08'917.0
2018-Jun-12 11:28N 37°32' W 076°02'1016.7
2018-Jun-12 10:53N 37°23' W 076°05'717.2
2018-Jun-12 10:30N 37°16' W 076°07'916.4
2018-Jun-12 09:58N 37°08' W 076°08'1016.0
2018-Jun-12 09:22N 36°60' W 076°01'2012.6
2018-Jun-12 07:48N 36°46' W 075°43'  

Dump ship's entire track history